Mora RC Data

Date Time Air Temperature Relative Humidity Wind Speed Wind Dir. Rain Solar Radiation Soil Temperature
2m 2m 3m 3m 10cm
US/Mountain F % MPH deg in MJ/m^2 F
max min avg max min avg max avg avg max min avg
2019-12-14 01:00:00 32.0 29.2 30.4 71.8 64.8 68.6 4.4 2.1 271.3 0.00 0.0000000 37.9 37.4 37.6
2019-12-14 02:00:00 29.8 28.7 29.2 75.4 69.7 72.7 4.0 1.8 314.6 0.00 0.0000000 37.4 37.1 37.3
2019-12-14 03:00:00 29.3 28.3 29.0 76.7 73.1 75.1 5.1 2.0 249.0 0.00 0.0000000 37.1 36.8 37.0
2019-12-14 04:00:00 30.3 28.1 29.3 77.7 70.0 73.2 5.3 2.0 114.9 0.00 0.0000483 36.8 36.6 36.7
2019-12-14 05:00:00 30.5 28.5 29.6 75.5 69.5 72.0 3.7 1.2 296.4 0.00 0.0000000 36.6 36.5 36.5
2019-12-14 06:00:00 30.5 28.4 29.4 74.5 68.1 71.2 7.1 2.8 73.9 0.00 0.0000000 36.5 36.3 36.4
2019-12-14 07:00:00 33.5 28.4 31.2 74.2 62.5 68.2 12.6 3.4 106.4 0.00 0.0013374 36.3 36.0 36.1
2019-12-14 08:00:00 43.9 31.6 35.1 74.0 47.4 66.0 13.7 4.0 320.2 0.00 0.2143410 36.0 35.9 36.0
2019-12-14 09:00:00 46.3 43.9 45.2 49.2 41.6 45.1 17.2 7.9 313.9 0.00 0.7357653 36.2 35.9 36.0
2019-12-14 10:00:00 48.3 45.6 47.0 43.4 33.5 38.3 20.8 10.3 298.5 0.00 1.2781320 37.2 36.2 36.7
2019-12-14 11:00:00 48.4 47.3 47.7 38.4 34.5 36.2 23.3 12.1 301.3 0.00 1.7230440 38.6 37.2 37.8
2019-12-14 12:00:00 48.9 47.2 48.1 37.6 32.7 35.5 21.0 11.7 305.4 0.00 1.8786210 40.2 38.6 39.3
2019-12-14 13:00:00 49.3 46.4 47.6 40.4 33.3 36.9 18.5 10.8 302.6 0.00 1.0607820 41.3 40.2 40.8
2019-12-14 14:00:00 48.7 46.4 47.6 40.6 36.0 38.3 19.4 8.9 313.6 0.00 1.0234600 41.6 41.3 41.4
2019-12-14 15:00:00 48.7 47.9 48.3 38.4 33.1 36.3 15.8 6.1 286.4 0.00 0.6316029 41.9 41.6 41.8
2019-12-14 16:00:00 48.2 46.5 47.3 42.2 34.6 38.3 16.0 5.5 275.8 0.00 0.2799729 42.0 41.9 41.9
2019-12-14 17:00:00 46.8 45.4 46.0 42.2 37.2 39.7 13.3 5.3 260.8 0.00 0.0369088 41.9 41.5 41.7
2019-12-14 18:00:00 46.1 45.5 45.8 42.0 37.9 39.4 13.5 7.0 267.9 0.00 0.0000000 41.5 40.8 41.1
2019-12-14 19:00:00 46.0 45.2 45.7 41.2 37.4 38.9 19.0 7.3 272.4 0.00 0.0000000 40.8 40.3 40.6
2019-12-14 20:00:00 46.2 45.6 45.9 39.3 35.4 37.3 16.2 9.1 269.1 0.00 0.0000000 40.3 39.9 40.1
2019-12-14 21:00:00 46.1 44.9 45.5 36.5 32.3 34.7 19.8 10.2 269.4 0.00 0.0000000 39.9 39.6 39.8
2019-12-14 22:00:00 45.2 43.8 44.5 37.3 34.8 36.1 16.2 8.8 278.0 0.00 0.0000000 39.6 39.2 39.4
2019-12-14 23:00:00 44.4 42.9 43.7 36.8 34.9 36.0 14.7 7.0 282.6 0.00 0.0000000 39.2 38.9 39.1
2019-12-15 00:00:00 43.8 42.3 43.1 36.8 31.5 34.1 17.4 8.1 281.7 0.00 0.0000000 38.9 38.5 38.7

Data is courtesy of the NM Climate Center. DO NOT USE IN LEGAL PROCEEDINGS.